Time;durP1;ratioP1;P1;durP2;ratioP2;P2;SDS_P1;SDS_P2;PMS_P1;PMS_P2;Temp;Humidity;BMP_temperature;BMP_pressure;BME280_temperature;BME280_humidity;BME280_pressure;Samples;Min_cycle;Max_cycle;Signal;HPM_P1;HPM_P2
2024/01/15 00:01:02;;;;;;;;;31.00;27.00;;;;;;;;4965053;28;62288;-78
2024/01/15 00:03:27;;;;;;;;;33.75;27.50;;;;;;;;4959211;28;62741;-78
2024/01/15 00:05:52;;;;;;;;;31.75;25.50;;;;;;;;5006853;27;61980;-78
2024/01/15 00:08:17;;;;;;;;;26.75;24.00;;;;;;;;4980176;28;61928;-78
2024/01/15 00:10:42;;;;;;;;;37.33;30.33;;;;;;;;4978742;28;61798;-79
2024/01/15 00:13:08;;;;;;;;;39.67;28.67;;;;;;;;4978013;28;65018;-79
2024/01/15 00:15:33;;;;;;;;;53.00;29.25;;;;;;;;4980071;28;62171;-79
2024/01/15 00:17:58;;;;;;;;;28.75;24.50;;;;;;;;4979630;28;62095;-78
2024/01/15 00:20:23;;;;;;;;;27.25;23.25;;;;;;;;4980126;28;61949;-78
2024/01/15 00:22:49;;;;;;;;;34.50;25.25;;;;;;;;4979282;28;62138;-79
2024/01/15 00:25:14;;;;;;;;;32.00;26.75;;;;;;;;4978487;28;61817;-80
2024/01/15 00:27:39;;;;;;;;;38.75;23.75;;;;;;;;4980138;28;62086;-78
2024/01/15 00:30:05;;;;;;;;;44.75;27.00;;;;;;;;4979905;28;62250;-79
2024/01/15 00:32:30;;;;;;;;;41.25;27.75;;;;;;;;4979431;28;63095;-79
2024/01/15 00:34:55;;;;;;;;;30.00;25.00;;;;;;;;4978799;28;61764;-78
2024/01/15 00:37:20;;;;;;;;;29.00;25.25;;;;;;;;4962934;28;61879;-79
2024/01/15 00:39:45;;;;;;;;;45.50;30.00;;;;;;;;4960628;28;61866;-79
2024/01/15 00:42:11;;;;;;;;;26.75;24.50;;;;;;;;5060220;28;64080;-79
2024/01/15 00:44:36;;;;;;;;;29.50;26.00;;;;;;;;4969172;28;61845;-79
2024/01/15 00:47:01;;;;;;;;;29.67;23.67;;;;;;;;4979663;28;61735;-78
2024/01/15 00:49:27;;;;;;;;;32.67;24.00;;;;;;;;4979530;28;61914;-78
2024/01/15 00:51:52;;;;;;;;;37.50;26.25;;;;;;;;4978606;28;61777;-78
2024/01/15 00:54:17;;;;;;;;;32.75;24.00;;;;;;;;4978317;28;61822;-78
2024/01/15 00:56:43;;;;;;;;;32.50;23.50;;;;;;;;4979719;28;61962;-79
2024/01/15 00:59:10;;;;;;;;;38.25;23.00;;;;;;;;4979656;28;62438;-79
2024/01/15 01:01:35;;;;;;;;;27.67;18.67;;;;;;;;4976382;28;61824;-79
2024/01/15 01:04:00;;;;;;;;;31.75;20.25;;;;;;;;4958733;28;61831;-78
2024/01/15 01:06:26;;;;;;;;;33.50;27.25;;;;;;;;4976450;28;61970;-79
2024/01/15 01:08:51;;;;;;;;;29.25;22.75;;;;;;;;4979380;28;61796;-79
2024/01/15 01:11:16;;;;;;;;;29.00;26.00;;;;;;;;4978413;28;62025;-78
2024/01/15 01:13:42;;;;;;;;;25.00;17.00;;;;;;;;4977884;28;61967;-78
2024/01/15 01:16:07;;;;;;;;;41.00;24.67;;;;;;;;4982051;28;61987;-78
2024/01/15 01:18:32;;;;;;;;;34.33;23.33;;;;;;;;4980364;28;61784;-78
2024/01/15 01:20:57;;;;;;;;;31.00;25.50;;;;;;;;4981473;28;61987;-78
2024/01/15 01:23:22;;;;;;;;;30.50;24.00;;;;;;;;4980371;28;61878;-78
2024/01/15 01:25:48;;;;;;;;;28.25;24.00;;;;;;;;4981240;28;61821;-78
2024/01/15 01:28:13;;;;;;;;;35.67;22.67;;;;;;;;4982345;28;61751;-78
2024/01/15 01:30:38;;;;;;;;;35.00;25.75;;;;;;;;4981506;28;62112;-78
2024/01/15 01:33:03;;;;;;;;;35.67;31.67;;;;;;;;4981507;28;62062;-78
2024/01/15 01:35:29;;;;;;;;;33.25;24.00;;;;;;;;4981910;28;62160;-78
2024/01/15 01:37:54;;;;;;;;;26.50;23.50;;;;;;;;4982201;28;61832;-78
2024/01/15 01:40:19;;;;;;;;;31.50;21.00;;;;;;;;4981848;28;62109;-79
2024/01/15 01:42:45;;;;;;;;;32.00;25.75;;;;;;;;4980644;28;61826;-78
2024/01/15 01:45:10;;;;;;;;;28.00;21.00;;;;;;;;4980662;28;62254;-78
2024/01/15 01:47:36;;;;;;;;;35.50;21.50;;;;;;;;4981995;28;61766;-79
2024/01/15 01:50:02;;;;;;;;;28.50;21.75;;;;;;;;4974902;28;63964;-78
2024/01/15 01:52:27;;;;;;;;;29.00;24.50;;;;;;;;4960704;28;62397;-78
2024/01/15 01:54:53;;;;;;;;;25.25;16.25;;;;;;;;4973909;28;62014;-79
2024/01/15 01:57:19;;;;;;;;;27.50;22.75;;;;;;;;4980956;28;61789;-79
2024/01/15 01:59:45;;;;;;;;;28.25;21.00;;;;;;;;4992593;27;61964;-79
2024/01/15 02:02:11;;;;;;;;;29.75;22.25;;;;;;;;5001313;27;61897;-78
2024/01/15 02:04:36;;;;;;;;;27.50;19.75;;;;;;;;5059275;28;61796;-79
2024/01/15 02:07:02;;;;;;;;;24.50;21.75;;;;;;;;5083494;28;61847;-78
2024/01/15 02:09:27;;;;;;;;;22.00;19.75;;;;;;;;5084060;27;61788;-78
2024/01/15 02:11:53;;;;;;;;;30.50;23.50;;;;;;;;5084651;27;61738;-78
2024/01/15 02:14:18;;;;;;;;;31.75;25.00;;;;;;;;5083092;27;62076;-79
2024/01/15 02:16:43;;;;;;;;;22.00;18.00;;;;;;;;5083359;27;62083;-78
2024/01/15 02:19:14;;;;;;;;;29.25;21.50;;;;;;;;5061500;28;63750;-79
2024/01/15 02:21:39;;;;;;;;;31.00;20.75;;;;;;;;4981528;28;62059;-79
2024/01/15 02:24:05;;;;;;;;;24.75;23.00;;;;;;;;4979993;28;61862;-78
2024/01/15 02:26:30;;;;;;;;;35.50;24.00;;;;;;;;4981081;28;62058;-79
2024/01/15 02:28:55;;;;;;;;;35.50;24.50;;;;;;;;4980966;28;62090;-79
2024/01/15 02:31:20;;;;;;;;;28.25;24.50;;;;;;;;4981094;28;61826;-78
2024/01/15 02:33:46;;;;;;;;;34.00;25.00;;;;;;;;4977152;28;61972;-79
2024/01/15 02:36:11;;;;;;;;;23.75;21.50;;;;;;;;4962354;28;61735;-78
2024/01/15 02:38:36;;;;;;;;;28.25;21.75;;;;;;;;4959542;28;63952;-78
2024/01/15 02:41:01;;;;;;;;;29.00;24.50;;;;;;;;4960582;28;61715;-78
2024/01/15 02:43:27;;;;;;;;;30.75;23.00;;;;;;;;4960120;28;61899;-78
2024/01/15 02:45:52;;;;;;;;;27.00;17.75;;;;;;;;4961846;28;62041;-78
2024/01/15 02:48:17;;;;;;;;;38.25;24.25;;;;;;;;5061884;27;63644;-79
2024/01/15 02:50:42;;;;;;;;;32.25;26.50;;;;;;;;4960212;28;62461;-79
2024/01/15 02:53:08;;;;;;;;;28.00;13.00;;;;;;;;4961842;28;62442;-79
2024/01/15 02:55:33;;;;;;;;;26.00;22.25;;;;;;;;4961593;28;62053;-78
2024/01/15 02:57:59;;;;;;;;;21.25;19.50;;;;;;;;4960994;28;62138;-78
2024/01/15 03:00:24;;;;;;;;;33.25;24.00;;;;;;;;4972210;28;62033;-78
2024/01/15 03:02:50;;;;;;;;;21.75;20.25;;;;;;;;4999352;27;62281;-79
2024/01/15 03:05:16;;;;;;;;;34.00;21.00;;;;;;;;4984328;27;61876;-78
2024/01/15 03:07:41;;;;;;;;;26.50;20.50;;;;;;;;4980039;28;62931;-79
2024/01/15 03:10:06;;;;;;;;;31.00;25.50;;;;;;;;4981144;28;61932;-79
2024/01/15 03:12:32;;;;;;;;;38.00;24.00;;;;;;;;4971036;28;61875;-79
2024/01/15 03:14:57;;;;;;;;;25.75;20.75;;;;;;;;4959936;28;62060;-81
2024/01/15 03:17:22;;;;;;;;;25.00;23.00;;;;;;;;4959149;28;63976;-79
2024/01/15 03:19:49;;;;;;;;;12.50;8.25;;;;;;;;5038963;27;62081;-79
2024/01/15 03:22:14;;;;;;;;;30.00;21.50;;;;;;;;4979323;28;61797;-78
2024/01/15 03:24:40;;;;;;;;;35.50;23.00;;;;;;;;4980705;28;61988;-78
2024/01/15 03:27:05;;;;;;;;;24.25;22.50;;;;;;;;4980246;28;61893;-78
2024/01/15 03:29:30;;;;;;;;;33.50;19.00;;;;;;;;4980450;28;61703;-78
2024/01/15 03:31:55;;;;;;;;;30.25;18.00;;;;;;;;4975764;28;61799;-78
2024/01/15 03:34:20;;;;;;;;;24.75;19.75;;;;;;;;4960999;28;61866;-78
2024/01/15 03:36:46;;;;;;;;;23.25;20.75;;;;;;;;4969970;28;65080;-79
2024/01/15 03:39:11;;;;;;;;;33.50;23.25;;;;;;;;4978683;28;61998;-79
2024/01/15 03:41:36;;;;;;;;;21.00;17.25;;;;;;;;4980747;28;61921;-79
2024/01/15 03:44:02;;;;;;;;;28.00;17.50;;;;;;;;4978779;28;61768;-79
2024/01/15 03:46:27;;;;;;;;;17.25;15.75;;;;;;;;4978771;28;64692;-79
2024/01/15 03:48:52;;;;;;;;;21.75;17.25;;;;;;;;4980313;28;62078;-78
2024/01/15 03:51:18;;;;;;;;;27.25;24.25;;;;;;;;4968648;28;61834;-78
2024/01/15 03:53:43;;;;;;;;;32.75;21.25;;;;;;;;4960847;28;61753;-79
2024/01/15 03:56:08;;;;;;;;;22.75;19.50;;;;;;;;4965380;28;63469;-78
2024/01/15 03:58:33;;;;;;;;;25.25;20.25;;;;;;;;4979984;28;62071;-79
2024/01/15 04:00:58;;;;;;;;;31.25;18.50;;;;;;;;4979034;28;61703;-79
2024/01/15 04:03:24;;;;;;;;;20.25;18.00;;;;;;;;4980190;28;61977;-78
2024/01/15 04:05:49;;;;;;;;;22.00;19.00;;;;;;;;4979262;28;61881;-79
2024/01/15 04:08:14;;;;;;;;;26.00;22.50;;;;;;;;4972813;28;62052;-79
2024/01/15 04:10:39;;;;;;;;;17.00;11.50;;;;;;;;4960894;28;61762;-79
2024/01/15 04:13:05;;;;;;;;;27.00;21.00;;;;;;;;4960628;28;61769;-79
2024/01/15 04:15:30;;;;;;;;;25.75;17.75;;;;;;;;4960037;28;61857;-79
2024/01/15 04:17:55;;;;;;;;;14.50;11.50;;;;;;;;4960463;28;61851;-79
2024/01/15 04:20:20;;;;;;;;;29.00;21.50;;;;;;;;4973247;28;62028;-79
2024/01/15 04:22:45;;;;;;;;;25.75;21.00;;;;;;;;4978721;28;61854;-79
2024/01/15 04:25:11;;;;;;;;;22.75;20.00;;;;;;;;4979263;28;61923;-79
2024/01/15 04:27:36;;;;;;;;;23.50;19.75;;;;;;;;5076353;28;61676;-79
2024/01/15 04:30:01;;;;;;;;;31.00;20.00;;;;;;;;5082362;27;61764;-78
2024/01/15 04:32:26;;;;;;;;;21.75;16.50;;;;;;;;5036580;27;61791;-79
2024/01/15 04:34:52;;;;;;;;;25.25;20.00;;;;;;;;4978795;28;61779;-79
2024/01/15 04:37:17;;;;;;;;;32.25;21.75;;;;;;;;4962325;28;62201;-78
2024/01/15 04:39:42;;;;;;;;;36.00;26.75;;;;;;;;4959181;28;62342;-79
2024/01/15 04:42:07;;;;;;;;;25.50;19.50;;;;;;;;4958680;28;62677;-79
2024/01/15 04:44:33;;;;;;;;;34.00;20.50;;;;;;;;4967844;28;64976;-79
2024/01/15 04:46:58;;;;;;;;;38.25;23.50;;;;;;;;4979709;28;61904;-79
2024/01/15 04:49:26;;;;;;;;;24.00;20.75;;;;;;;;4981310;28;61856;-79
2024/01/15 04:51:51;;;;;;;;;29.25;16.75;;;;;;;;4981497;28;61751;-79
2024/01/15 04:54:17;;;;;;;;;39.00;24.75;;;;;;;;4974137;28;61933;-79
2024/01/15 04:56:43;;;;;;;;;22.50;18.25;;;;;;;;4962785;28;61742;-79
2024/01/15 04:59:08;;;;;;;;;31.00;21.75;;;;;;;;4963042;28;61860;-79
2024/01/15 05:01:33;;;;;;;;;31.00;24.75;;;;;;;;4961940;28;62104;-79
2024/01/15 05:03:59;;;;;;;;;27.00;17.25;;;;;;;;4961990;28;61752;-79
2024/01/15 05:06:24;;;;;;;;;28.75;16.50;;;;;;;;4961872;28;61883;-79
2024/01/15 05:08:49;;;;;;;;;28.75;20.00;;;;;;;;4962644;28;62089;-79
2024/01/15 05:11:14;;;;;;;;;24.50;19.25;;;;;;;;4962672;28;62071;-79
2024/01/15 05:13:40;;;;;;;;;22.25;20.00;;;;;;;;4962477;28;62428;-79
2024/01/15 05:16:05;;;;;;;;;27.25;22.50;;;;;;;;4962955;28;61760;-79
2024/01/15 05:18:30;;;;;;;;;22.75;17.75;;;;;;;;4961535;28;62058;-79
2024/01/15 05:20:55;;;;;;;;;14.50;11.75;;;;;;;;4980463;28;61704;-79
2024/01/15 05:23:21;;;;;;;;;26.75;17.00;;;;;;;;4979717;28;63948;-79
2024/01/15 05:25:46;;;;;;;;;20.75;17.75;;;;;;;;4994631;28;61866;-79
2024/01/15 05:28:11;;;;;;;;;20.50;15.75;;;;;;;;5001972;27;62134;-78
2024/01/15 05:30:36;;;;;;;;;24.25;16.50;;;;;;;;5002288;27;61782;-79
2024/01/15 05:33:02;;;;;;;;;30.25;16.75;;;;;;;;5000070;28;64792;-78
2024/01/15 05:35:28;;;;;;;;;23.25;17.00;;;;;;;;5001199;27;61907;-79
2024/01/15 05:37:53;;;;;;;;;26.00;15.50;;;;;;;;5000273;28;62146;-78
2024/01/15 05:40:18;;;;;;;;;21.75;16.50;;;;;;;;5000198;28;62051;-79
2024/01/15 05:42:43;;;;;;;;;17.50;15.75;;;;;;;;5000646;27;62795;-79
2024/01/15 05:45:09;;;;;;;;;18.50;11.50;;;;;;;;5001788;27;61788;-79
2024/01/15 05:47:34;;;;;;;;;19.75;15.00;;;;;;;;5000332;28;62751;-79
2024/01/15 05:50:00;;;;;;;;;15.00;13.00;;;;;;;;5001725;27;61911;-79
2024/01/15 05:52:25;;;;;;;;;31.25;15.25;;;;;;;;5000646;27;61751;-78
2024/01/15 05:54:51;;;;;;;;;20.25;16.25;;;;;;;;5001092;27;61656;-79
2024/01/15 05:57:16;;;;;;;;;19.00;13.50;;;;;;;;4985994;27;62321;-79
2024/01/15 05:59:42;;;;;;;;;23.25;17.75;;;;;;;;4981740;28;62102;-79
2024/01/15 06:02:08;;;;;;;;;21.75;15.25;;;;;;;;4979448;28;63940;-79
2024/01/15 06:04:33;;;;;;;;;19.75;13.75;;;;;;;;4981297;28;61744;-78
2024/01/15 06:06:59;;;;;;;;;24.25;19.75;;;;;;;;4981919;28;61839;-78
2024/01/15 06:09:26;;;;;;;;;0.00;0.00;;;;;;;;4981265;28;61787;-79
2024/01/15 06:11:51;;;;;;;;;15.00;13.75;;;;;;;;4981301;28;62543;-78
2024/01/15 06:14:16;;;;;;;;;20.25;15.00;;;;;;;;4980282;28;61980;-79
2024/01/15 06:16:42;;;;;;;;;20.75;16.25;;;;;;;;4980356;28;61754;-80
2024/01/15 06:19:07;;;;;;;;;21.50;15.00;;;;;;;;4981202;28;61877;-78
2024/01/15 06:21:32;;;;;;;;;18.00;13.50;;;;;;;;4981288;28;61903;-78
2024/01/15 06:23:57;;;;;;;;;18.75;14.50;;;;;;;;4980860;28;61747;-78
2024/01/15 06:26:23;;;;;;;;;18.00;15.00;;;;;;;;4981667;28;61840;-78
2024/01/15 06:28:48;;;;;;;;;13.75;12.50;;;;;;;;4980278;28;62026;-77
2024/01/15 06:31:13;;;;;;;;;18.00;14.50;;;;;;;;4979695;28;63625;-78
2024/01/15 06:33:39;;;;;;;;;18.00;15.25;;;;;;;;4985841;28;61765;-78
2024/01/15 06:36:05;;;;;;;;;19.25;15.25;;;;;;;;4981082;28;62289;-78
2024/01/15 06:38:30;;;;;;;;;19.25;15.00;;;;;;;;4980064;28;62191;-78
2024/01/15 06:40:56;;;;;;;;;24.00;17.00;;;;;;;;4978735;28;63591;-79
2024/01/15 06:43:21;;;;;;;;;19.00;16.25;;;;;;;;4990815;28;61915;-77
2024/01/15 06:45:46;;;;;;;;;23.00;15.25;;;;;;;;4996368;27;61891;-77
2024/01/15 06:48:16;;;;;;;;;23.75;16.50;;;;;;;;4980111;28;61861;-77
2024/01/15 06:50:41;;;;;;;;;27.25;15.75;;;;;;;;4978882;28;64722;-77
2024/01/15 06:53:07;;;;;;;;;16.50;15.50;;;;;;;;4974417;28;61869;-77
2024/01/15 06:55:32;;;;;;;;;17.00;14.50;;;;;;;;4979845;28;61706;-78
2024/01/15 06:57:58;;;;;;;;;24.25;16.25;;;;;;;;4980397;28;61881;-77
2024/01/15 07:00:23;;;;;;;;;18.00;15.00;;;;;;;;4979682;28;61963;-77
2024/01/15 07:02:48;;;;;;;;;15.50;14.00;;;;;;;;4979669;28;61997;-77
2024/01/15 07:05:14;;;;;;;;;25.00;15.75;;;;;;;;4981065;28;62001;-77
2024/01/15 07:07:39;;;;;;;;;18.00;14.25;;;;;;;;4981085;28;61965;-79
2024/01/15 07:10:05;;;;;;;;;18.75;14.75;;;;;;;;4982130;27;63013;-80
2024/01/15 07:12:30;;;;;;;;;24.75;18.75;;;;;;;;4979642;28;62011;-78
2024/01/15 07:14:56;;;;;;;;;17.50;11.50;;;;;;;;4980775;28;62229;-81
2024/01/15 07:17:21;;;;;;;;;25.00;18.25;;;;;;;;4982526;28;61956;-79
2024/01/15 07:19:46;;;;;;;;;22.00;19.00;;;;;;;;4979183;28;62791;-78
2024/01/15 07:22:12;;;;;;;;;19.50;15.75;;;;;;;;4979421;28;62404;-78
2024/01/15 07:24:37;;;;;;;;;24.75;19.00;;;;;;;;4979847;28;62331;-78
2024/01/15 07:27:04;;;;;;;;;43.00;31.00;;;;;;;;4982200;28;61771;-81
2024/01/15 07:29:29;;;;;;;;;27.50;21.50;;;;;;;;4980283;28;61984;-78
2024/01/15 07:31:55;;;;;;;;;35.25;25.25;;;;;;;;4978855;28;61733;-78
2024/01/15 07:34:20;;;;;;;;;28.25;23.50;;;;;;;;4978275;28;61928;-78
2024/01/15 07:36:45;;;;;;;;;26.25;21.75;;;;;;;;4978808;28;62303;-79
2024/01/15 07:39:11;;;;;;;;;25.75;19.75;;;;;;;;4979722;28;61824;-79
2024/01/15 07:41:36;;;;;;;;;23.75;16.25;;;;;;;;4979342;28;61886;-79
2024/01/15 07:44:02;;;;;;;;;30.50;25.00;;;;;;;;4978128;28;62225;-79
2024/01/15 07:46:27;;;;;;;;;30.25;24.25;;;;;;;;4980655;28;62376;-82
2024/01/15 07:48:56;;;;;;;;;28.00;24.50;;;;;;;;4985839;27;63828;-78
2024/01/15 07:51:21;;;;;;;;;34.50;26.50;;;;;;;;4980133;28;61762;-77
2024/01/15 07:53:47;;;;;;;;;36.50;24.50;;;;;;;;4978693;28;61885;-76
2024/01/15 07:56:12;;;;;;;;;31.75;24.00;;;;;;;;4979959;28;61889;-76
2024/01/15 07:58:37;;;;;;;;;38.25;23.75;;;;;;;;4978616;28;61876;-76
2024/01/15 08:01:02;;;;;;;;;23.25;20.50;;;;;;;;4979100;28;62407;-76
2024/01/15 08:03:28;;;;;;;;;30.75;18.00;;;;;;;;4977907;28;62045;-77
2024/01/15 08:05:54;;;;;;;;;33.00;20.00;;;;;;;;4983495;28;61951;-76
2024/01/15 08:08:21;;;;;;;;;30.50;22.00;;;;;;;;4997085;28;64678;-78
2024/01/15 08:10:46;;;;;;;;;27.50;22.25;;;;;;;;4998910;28;61805;-76
2024/01/15 08:13:11;;;;;;;;;16.00;14.50;;;;;;;;4999266;28;61710;-75
2024/01/15 08:15:36;;;;;;;;;26.00;22.00;;;;;;;;4999818;27;61867;-76
2024/01/15 08:18:02;;;;;;;;;33.00;21.25;;;;;;;;4998997;28;62306;-75
2024/01/15 08:20:28;;;;;;;;;34.25;25.75;;;;;;;;4984023;28;62348;-75
2024/01/15 08:22:53;;;;;;;;;30.50;22.75;;;;;;;;4978883;28;61927;-76
2024/01/15 08:25:18;;;;;;;;;29.25;24.00;;;;;;;;4979606;28;62063;-76
2024/01/15 08:27:43;;;;;;;;;26.50;19.50;;;;;;;;4979523;28;62064;-76
2024/01/15 08:30:09;;;;;;;;;31.75;25.25;;;;;;;;4979605;28;61711;-76
2024/01/15 08:32:40;;;;;;;;;37.50;19.00;;;;;;;;4979531;28;61867;-76
2024/01/15 08:35:05;;;;;;;;;23.50;22.00;;;;;;;;4977654;28;61916;-76
2024/01/15 08:37:31;;;;;;;;;29.00;21.75;;;;;;;;4986133;28;61820;-75
2024/01/15 08:39:56;;;;;;;;;29.50;21.50;;;;;;;;4997938;28;61859;-78
2024/01/15 08:42:21;;;;;;;;;30.50;23.00;;;;;;;;4997820;28;62071;-77
2024/01/15 08:44:46;;;;;;;;;25.50;19.00;;;;;;;;4997828;28;61846;-78
2024/01/15 08:47:12;;;;;;;;;36.00;30.50;;;;;;;;4987344;28;63880;-82
2024/01/15 08:49:37;;;;;;;;;52.50;35.75;;;;;;;;4977572;28;62115;-75
2024/01/15 08:52:02;;;;;;;;;31.75;27.25;;;;;;;;4977182;28;61925;-75
2024/01/15 08:54:27;;;;;;;;;34.50;25.50;;;;;;;;4993979;27;61814;-77
2024/01/15 08:56:53;;;;;;;;;28.25;20.00;;;;;;;;4995659;28;64787;-77
2024/01/15 08:59:24;;;;;;;;;34.00;18.00;;;;;;;;4997905;27;61742;-77
2024/01/15 09:01:49;;;;;;;;;27.75;23.50;;;;;;;;4997530;28;61857;-77
2024/01/15 09:04:15;;;;;;;;;33.50;25.00;;;;;;;;4997730;27;61869;-76
2024/01/15 09:06:40;;;;;;;;;26.25;21.75;;;;;;;;4998342;28;61805;-76
2024/01/15 09:09:06;;;;;;;;;26.75;16.00;;;;;;;;4998499;28;61853;-77
2024/01/15 09:11:32;;;;;;;;;23.75;18.00;;;;;;;;4998696;28;61728;-77
2024/01/15 09:13:57;;;;;;;;;18.25;17.50;;;;;;;;4997474;28;62049;-77
2024/01/15 09:16:23;;;;;;;;;28.00;20.25;;;;;;;;4998069;27;61718;-76
2024/01/15 09:18:48;;;;;;;;;34.00;21.75;;;;;;;;4996672;28;61889;-77
2024/01/15 09:21:14;;;;;;;;;32.25;28.50;;;;;;;;4977172;28;62043;-77
2024/01/15 09:23:39;;;;;;;;;26.25;25.00;;;;;;;;4978828;28;61973;-77
2024/01/15 09:26:04;;;;;;;;;59.50;43.50;;;;;;;;4978217;28;62793;-76
2024/01/15 09:28:30;;;;;;;;;78.00;59.00;;;;;;;;4978675;28;61742;-77
2024/01/15 09:30:55;;;;;;;;;45.75;34.75;;;;;;;;4977747;28;61939;-76
2024/01/15 09:33:20;;;;;;;;;44.25;30.25;;;;;;;;4978383;28;61680;-77
2024/01/15 09:35:46;;;;;;;;;28.50;26.50;;;;;;;;4978571;28;61883;-76
2024/01/15 09:38:11;;;;;;;;;28.25;22.75;;;;;;;;4980122;28;61764;-76
2024/01/15 09:40:38;;;;;;;;;23.75;23.00;;;;;;;;4981528;28;61782;-77
2024/01/15 09:43:03;;;;;;;;;27.25;19.00;;;;;;;;4980810;28;61834;-77
2024/01/15 09:45:29;;;;;;;;;29.25;22.00;;;;;;;;4980967;28;62842;-76
2024/01/15 09:47:54;;;;;;;;;18.25;14.25;;;;;;;;4981501;28;61815;-76
2024/01/15 09:50:20;;;;;;;;;22.00;19.00;;;;;;;;4980112;28;61759;-76
2024/01/15 09:52:45;;;;;;;;;24.50;20.00;;;;;;;;4981539;28;61836;-78
2024/01/15 09:55:11;;;;;;;;;21.75;16.25;;;;;;;;4996944;28;61915;-78
2024/01/15 09:57:37;;;;;;;;;27.75;23.00;;;;;;;;4999748;28;61837;-78
2024/01/15 10:00:04;;;;;;;;;15.50;10.25;;;;;;;;5001573;27;61862;-78
2024/01/15 10:02:30;;;;;;;;;34.25;23.75;;;;;;;;5001054;27;61787;-78
2024/01/15 10:04:55;;;;;;;;;22.00;16.00;;;;;;;;5000107;27;61876;-78
2024/01/15 10:07:21;;;;;;;;;24.00;19.25;;;;;;;;5000758;27;61785;-78
2024/01/15 10:09:47;;;;;;;;;33.75;19.75;;;;;;;;5000026;28;61708;-78
2024/01/15 10:12:12;;;;;;;;;32.00;19.50;;;;;;;;5001492;27;61820;-78
2024/01/15 10:14:38;;;;;;;;;24.50;20.00;;;;;;;;4998862;27;64696;-78
2024/01/15 10:17:21;;;;;;;;;24.00;17.75;;;;;;;;5001014;28;61803;-78
2024/01/15 10:19:47;;;;;;;;;21.25;13.00;;;;;;;;4991281;27;61720;-78
2024/01/15 10:22:17;;;;;;;;;23.75;16.50;;;;;;;;4981194;28;61727;-76
2024/01/15 10:24:43;;;;;;;;;19.75;15.50;;;;;;;;4979224;28;63789;-76
2024/01/15 10:27:10;;;;;;;;;19.25;16.00;;;;;;;;4981390;28;61782;-76
2024/01/15 10:29:36;;;;;;;;;6.00;6.00;;;;;;;;4980847;28;61907;-77
2024/01/15 10:32:02;;;;;;;;;16.00;12.75;;;;;;;;4980266;28;62062;-77
2024/01/15 10:34:27;;;;;;;;;11.00;11.00;;;;;;;;4980136;28;62650;-76
2024/01/15 10:36:55;;;;;;;;;13.75;11.75;;;;;;;;4981215;28;61657;-77
2024/01/15 10:39:23;;;;;;;;;14.75;12.25;;;;;;;;4981002;28;62096;-76
2024/01/15 10:41:50;;;;;;;;;11.75;11.75;;;;;;;;4979889;28;62154;-77
2024/01/15 10:44:16;;;;;;;;;16.50;8.00;;;;;;;;4980159;28;61776;-77
2024/01/15 10:46:41;;;;;;;;;12.75;6.00;;;;;;;;4980544;28;62335;-76
2024/01/15 10:49:07;;;;;;;;;6.00;4.00;;;;;;;;4979910;28;61877;-76
2024/01/15 10:51:32;;;;;;;;;5.00;4.00;;;;;;;;4979953;28;61673;-77
2024/01/15 10:53:59;;;;;;;;;6.00;6.00;;;;;;;;4979863;28;61890;-76
2024/01/15 10:56:25;;;;;;;;;5.00;3.00;;;;;;;;4981399;28;61865;-76
2024/01/15 10:58:50;;;;;;;;;5.25;5.00;;;;;;;;4980379;28;61832;-77
2024/01/15 11:01:16;;;;;;;;;4.00;4.00;;;;;;;;4981286;28;61873;-77
2024/01/15 11:03:42;;;;;;;;;3.00;3.00;;;;;;;;4979685;28;61745;-76
2024/01/15 11:06:19;;;;;;;;;5.00;3.00;;;;;;;;4980584;28;61747;-77
2024/01/15 11:08:45;;;;;;;;;5.00;1.75;;;;;;;;4979098;28;62018;-77
2024/01/15 11:11:10;;;;;;;;;3.75;2.50;;;;;;;;4981168;28;61865;-76
2024/01/15 11:13:36;;;;;;;;;4.50;2.00;;;;;;;;4979612;28;62808;-77
2024/01/15 11:16:06;;;;;;;;;1.50;1.50;;;;;;;;4980749;28;61687;-77
2024/01/15 11:18:35;;;;;;;;;1.75;1.00;;;;;;;;4980899;28;61716;-76
2024/01/15 11:21:07;;;;;;;;;2.50;2.00;;;;;;;;4980686;28;62028;-76
2024/01/15 11:23:42;;;;;;;;;3.00;3.00;;;;;;;;4980074;28;62637;-76
2024/01/15 11:26:26;;;;;;;;;3.50;1.00;;;;;;;;4979362;28;61740;-76
2024/01/15 11:28:52;;;;;;;;;12.00;10.25;;;;;;;;4980100;28;61963;-76
2024/01/15 11:31:17;;;;;;;;;2.50;1.00;;;;;;;;4980932;28;61927;-76
2024/01/15 11:33:52;;;;;;;;;6.50;4.00;;;;;;;;4979592;28;61896;-77
2024/01/15 11:36:17;;;;;;;;;0.00;0.00;;;;;;;;4980764;28;61804;-76
2024/01/15 11:38:42;;;;;;;;;2.25;1.00;;;;;;;;4980063;28;61925;-76
2024/01/15 11:41:15;;;;;;;;;4.00;2.00;;;;;;;;4980677;28;61965;-76
2024/01/15 11:43:40;;;;;;;;;1.00;1.00;;;;;;;;4978253;28;63830;-76
2024/01/15 11:46:10;;;;;;;;;0.50;0.50;;;;;;;;4978908;28;62051;-76
2024/01/15 11:48:42;;;;;;;;;2.75;1.00;;;;;;;;4980617;28;61791;-77
2024/01/15 11:51:07;;;;;;;;;1.00;1.00;;;;;;;;4980805;28;61979;-76
2024/01/15 11:53:36;;;;;;;;;1.00;1.00;;;;;;;;4979668;28;61956;-77
2024/01/15 11:56:02;;;;;;;;;1.00;1.00;;;;;;;;4980053;28;61783;-76
2024/01/15 11:58:30;;;;;;;;;2.00;2.00;;;;;;;;4978985;28;61722;-77
2024/01/15 12:00:56;;;;;;;;;0.00;0.00;;;;;;;;4980445;28;61735;-76
2024/01/15 12:03:22;;;;;;;;;1.50;1.50;;;;;;;;4978330;28;63520;-76
2024/01/15 12:05:47;;;;;;;;;1.00;1.00;;;;;;;;4979624;28;61860;-76
2024/01/15 12:08:12;;;;;;;;;1.75;1.00;;;;;;;;4980080;28;61724;-76
2024/01/15 12:10:40;;;;;;;;;0.00;0.00;;;;;;;;4980513;28;61735;-76
2024/01/15 12:13:09;;;;;;;;;1.25;1.00;;;;;;;;4977624;28;65148;-76
2024/01/15 12:15:35;;;;;;;;;2.00;1.00;;;;;;;;4980015;28;61699;-76
2024/01/15 12:18:02;;;;;;;;;1.50;1.50;;;;;;;;4979709;28;62067;-77
2024/01/15 12:20:30;;;;;;;;;0.50;0.50;;;;;;;;4979973;28;61919;-76
2024/01/15 12:22:56;;;;;;;;;1.00;0.00;;;;;;;;4977602;28;63707;-77
2024/01/15 12:25:22;;;;;;;;;3.00;1.75;;;;;;;;4978077;28;61737;-76
2024/01/15 12:27:47;;;;;;;;;1.25;1.25;;;;;;;;4978569;28;61771;-76
2024/01/15 12:30:13;;;;;;;;;1.75;0.00;;;;;;;;4980140;28;61762;-77
2024/01/15 12:32:39;;;;;;;;;1.00;1.00;;;;;;;;4977736;28;64848;-77
2024/01/15 12:35:05;;;;;;;;;1.00;1.00;;;;;;;;4977714;28;61737;-77
2024/01/15 12:37:30;;;;;;;;;1.50;1.50;;;;;;;;4979683;28;61795;-77
2024/01/15 12:39:55;;;;;;;;;1.00;1.00;;;;;;;;4978162;28;61653;-77
2024/01/15 12:42:21;;;;;;;;;4.50;3.50;;;;;;;;4979200;28;61700;-77
2024/01/15 12:44:46;;;;;;;;;2.50;1.00;;;;;;;;4978279;28;61938;-77
2024/01/15 12:47:12;;;;;;;;;1.00;1.00;;;;;;;;4979611;28;61741;-76
2024/01/15 12:49:37;;;;;;;;;1.75;0.75;;;;;;;;4979895;28;61826;-76
2024/01/15 12:52:02;;;;;;;;;1.00;1.00;;;;;;;;4978657;28;61817;-76
2024/01/15 12:54:28;;;;;;;;;0.00;0.00;;;;;;;;4978710;28;61755;-76
2024/01/15 12:56:53;;;;;;;;;0.75;0.25;;;;;;;;4977974;28;61992;-76
2024/01/15 12:59:18;;;;;;;;;0.00;0.00;;;;;;;;4979562;28;61818;-76
2024/01/15 13:01:45;;;;;;;;;0.00;0.00;;;;;;;;4977685;28;63762;-77
2024/01/15 13:04:10;;;;;;;;;1.00;0.00;;;;;;;;4978715;28;61839;-77
2024/01/15 13:06:36;;;;;;;;;1.75;0.50;;;;;;;;4977988;28;62203;-76
2024/01/15 13:09:02;;;;;;;;;1.75;1.00;;;;;;;;4977476;28;62020;-77
2024/01/15 13:11:28;;;;;;;;;0.00;0.00;;;;;;;;4981862;28;62745;-77
2024/01/15 13:13:53;;;;;;;;;0.00;0.00;;;;;;;;4982449;28;61752;-77
2024/01/15 13:16:20;;;;;;;;;1.00;1.00;;;;;;;;4980922;28;61985;-77
2024/01/15 13:18:46;;;;;;;;;1.50;1.50;;;;;;;;4982016;28;61749;-77
2024/01/15 13:21:12;;;;;;;;;0.00;0.00;;;;;;;;4981207;28;61747;-77
2024/01/15 13:23:38;;;;;;;;;0.00;0.00;;;;;;;;4980405;28;61997;-77
2024/01/15 13:26:03;;;;;;;;;1.50;0.50;;;;;;;;4981751;28;61933;-76
2024/01/15 13:28:28;;;;;;;;;3.00;2.00;;;;;;;;4982316;28;61974;-77
2024/01/15 13:30:53;;;;;;;;;1.75;1.00;;;;;;;;4981354;28;62559;-77
2024/01/15 13:33:19;;;;;;;;;1.00;1.00;;;;;;;;4981712;28;61833;-76
2024/01/15 13:35:44;;;;;;;;;1.00;1.00;;;;;;;;4981602;28;62311;-76
2024/01/15 13:38:09;;;;;;;;;0.00;0.00;;;;;;;;4980103;28;61838;-77
2024/01/15 13:40:34;;;;;;;;;3.00;0.25;;;;;;;;4981388;28;62011;-77
2024/01/15 13:42:59;;;;;;;;;1.00;1.00;;;;;;;;4982125;28;61821;-76
2024/01/15 13:45:25;;;;;;;;;0.50;0.50;;;;;;;;4980539;28;62035;-77
2024/01/15 13:47:50;;;;;;;;;2.00;2.00;;;;;;;;4980899;28;61838;-76
2024/01/15 13:50:15;;;;;;;;;0.25;0.25;;;;;;;;4981019;28;61936;-77
2024/01/15 13:52:40;;;;;;;;;1.00;1.00;;;;;;;;4979853;28;61964;-77
2024/01/15 13:55:06;;;;;;;;;1.00;1.00;;;;;;;;4981934;28;61865;-76
2024/01/15 13:57:31;;;;;;;;;3.00;2.00;;;;;;;;4982017;28;61904;-76
2024/01/15 13:59:56;;;;;;;;;2.00;1.00;;;;;;;;4981189;28;62650;-76
2024/01/15 14:02:22;;;;;;;;;1.25;1.25;;;;;;;;4980440;28;62041;-76
2024/01/15 14:04:47;;;;;;;;;1.00;1.00;;;;;;;;4980991;28;61917;-76
2024/01/15 14:07:12;;;;;;;;;1.00;1.00;;;;;;;;4981415;28;62194;-76
2024/01/15 14:09:38;;;;;;;;;1.25;0.00;;;;;;;;4980720;28;61738;-76
2024/01/15 14:12:03;;;;;;;;;6.00;0.00;;;;;;;;4980245;28;62005;-77
2024/01/15 14:14:28;;;;;;;;;0.50;0.50;;;;;;;;4981577;28;62112;-77